Time;durP1;ratioP1;P1;durP2;ratioP2;P2;SDS_P1;SDS_P2;PMS_P1;PMS_P2;Temp;Humidity;BMP_temperature;BMP_pressure;BME280_temperature;BME280_humidity;BME280_pressure;Samples;Min_cycle;Max_cycle;Signal;HPM_P1;HPM_P2
2022/01/18 00:00:28;;;;;;;;;79.67;60.67;;;;;5.28;79.39;103180.66;5120059;27;45346;-77
2022/01/18 00:02:53;;;;;;;;;92.25;70.25;;;;;5.25;79.81;103190.91;5157992;27;45358;-81
2022/01/18 00:05:19;;;;;;;;;93.00;74.25;;;;;5.02;80.09;103161.50;5161925;27;45360;-82
2022/01/18 00:07:46;;;;;;;;;95.00;77.00;;;;;4.85;79.80;103123.78;5142287;27;45256;-79
2022/01/18 00:10:12;;;;;;;;;100.50;84.25;;;;;5.13;79.97;103176.22;5160739;27;45327;-83
2022/01/18 00:20:39;;;;;;;;;84.67;66.33;;;;;4.83;79.57;103133.19;5120842;27;45448;-80
2022/01/18 00:23:04;;;;;;;;;93.00;71.75;;;;;4.89;80.03;103174.53;5122340;27;45144;-81
2022/01/18 00:25:30;;;;;;;;;91.25;68.75;;;;;4.95;80.17;103188.03;5121353;27;45506;-81
2022/01/18 00:27:56;;;;;;;;;82.33;64.33;;;;;4.83;79.87;103147.97;5120711;27;45207;-78
2022/01/18 00:35:26;;;;;;;;;87.00;67.75;;;;;4.80;80.09;103169.56;5120014;27;45378;-78
2022/01/18 00:37:54;;;;;;;;;86.50;68.25;;;;;4.81;80.06;103155.69;5119178;27;45611;-79
2022/01/18 00:40:20;;;;;;;;;85.00;67.67;;;;;4.91;80.11;103179.84;5119303;27;45413;-79
2022/01/18 00:42:45;;;;;;;;;77.25;60.00;;;;;4.80;80.20;103182.63;5119231;27;45297;-80
2022/01/18 00:45:11;;;;;;;;;89.00;70.75;;;;;4.57;80.33;103130.53;5119636;27;45433;-79
2022/01/18 00:47:36;;;;;;;;;94.25;76.25;;;;;4.58;80.40;103120.19;5118906;27;45415;-79
2022/01/18 00:50:03;;;;;;;;;94.75;77.50;;;;;4.69;80.39;103154.84;5119170;27;45412;-77
2022/01/18 00:52:34;;;;;;;;;97.50;75.25;;;;;4.54;80.17;103131.19;5119470;27;45180;-78
2022/01/18 00:55:01;;;;;;;;;98.00;79.75;;;;;4.55;80.24;103135.59;5119500;27;45114;-78
2022/01/18 00:57:27;;;;;;;;;99.00;78.50;;;;;4.62;79.99;103150.00;5118771;27;46030;-77
2022/01/18 00:59:53;;;;;;;;;96.25;76.00;;;;;4.53;80.03;103144.13;5119318;27;45191;-77
2022/01/18 01:02:18;;;;;;;;;84.25;63.25;;;;;4.49;80.55;103137.81;5118722;27;45266;-78
2022/01/18 01:04:49;;;;;;;;;86.75;67.00;;;;;4.56;80.10;103152.19;5119812;27;45302;-77
2022/01/18 01:07:20;;;;;;;;;92.25;70.00;;;;;4.62;80.21;103162.16;5137088;27;46370;-77
2022/01/18 01:09:46;;;;;;;;;95.75;71.75;;;;;4.58;80.17;103166.25;5127819;27;45499;-79
2022/01/18 01:12:12;;;;;;;;;83.75;67.00;;;;;4.49;80.17;103163.00;5139627;27;45323;-78
2022/01/18 01:14:40;;;;;;;;;94.75;72.50;;;;;4.24;80.09;103121.19;5123629;27;45353;-78
2022/01/18 01:19:51;;;;;;;;;81.50;64.50;;;;;4.31;80.11;103144.31;5118491;27;45264;-78
2022/01/18 01:36:05;;;;;;;;;76.33;58.00;;;;;4.78;78.76;103175.50;5139547;27;45300;-76
2022/01/18 01:44:21;;;;;;;;;73.33;58.33;;;;;4.82;78.21;103151.38;5138972;27;45271;-78
2022/01/18 01:46:47;;;;;;;;;69.33;52.67;;;;;4.93;78.35;103180.84;5139098;27;45426;-77
2022/01/18 01:49:14;;;;;;;;;67.00;53.00;;;;;4.80;77.80;103151.28;5138971;27;46076;-78
2022/01/18 01:51:42;;;;;;;;;59.67;48.33;;;;;4.73;78.15;103124.63;5139030;27;45300;-77
2022/01/18 01:54:10;;;;;;;;;63.67;51.33;;;;;5.04;77.97;103175.59;5139186;27;45393;-77
2022/01/18 01:56:36;;;;;;;;;61.00;46.33;;;;;5.03;77.75;103170.28;5139092;27;45404;-78
2022/01/18 01:59:03;;;;;;;;;64.67;51.00;;;;;5.07;78.35;103167.94;5137875;27;45832;-77
2022/01/18 02:01:29;;;;;;;;;59.00;48.67;;;;;4.94;78.26;103144.41;5138340;27;45247;-78
2022/01/18 02:03:56;;;;;;;;;45.67;42.33;;;;;4.85;77.85;103122.91;5136630;27;45472;-77
2022/01/18 02:06:23;;;;;;;;;48.00;40.00;;;;;5.17;77.89;103168.59;5122066;27;45162;-77
2022/01/18 02:08:49;;;;;;;;;49.00;39.33;;;;;5.09;78.15;103163.72;5117463;27;46426;-78
2022/01/18 02:11:14;;;;;;;;;42.67;38.67;;;;;5.14;77.72;103170.19;5134211;27;45473;-78
2022/01/18 02:13:40;;;;;;;;;57.33;43.00;;;;;5.02;77.35;103129.25;5138907;27;45364;-76
2022/01/18 02:24:08;;;;;;;;;41.67;35.67;;;;;5.25;77.38;103172.63;5121508;27;45257;-78
2022/01/18 02:26:33;;;;;;;;;45.33;38.33;;;;;5.06;77.54;103141.72;5117873;27;45279;-77
2022/01/18 02:29:00;;;;;;;;;41.67;34.00;;;;;4.99;77.33;103134.28;5117907;27;46123;-78
2022/01/18 02:31:26;;;;;;;;;43.67;37.33;;;;;5.20;77.56;103163.56;5117897;27;45322;-75
2022/01/18 02:33:51;;;;;;;;;50.00;39.33;;;;;5.04;77.18;103135.50;5118057;27;45321;-76
2022/01/18 02:36:17;;;;;;;;;29.33;27.67;;;;;5.13;76.83;103162.25;5138699;27;45283;-77
2022/01/18 02:38:42;;;;;;;;;31.67;25.33;;;;;4.86;76.84;103130.81;5141776;27;46231;-77
2022/01/18 02:41:08;;;;;;;;;37.00;28.33;;;;;5.02;78.07;103163.19;5140521;27;45250;-77
2022/01/18 02:43:50;;;;;;;;;32.00;28.33;;;;;4.81;77.61;103133.91;5140931;27;45606;-78
2022/01/18 02:46:16;;;;;;;;;30.00;25.00;;;;;4.90;77.97;103142.38;5125208;27;45455;-76
2022/01/18 02:48:42;;;;;;;;;25.67;25.67;;;;;4.99;77.78;103166.53;5121141;27;45663;-77
2022/01/18 02:51:07;;;;;;;;;35.00;26.00;;;;;4.90;78.25;103150.22;5120968;27;45424;-78
2022/01/18 02:53:56;;;;;;;;;25.33;23.00;;;;;4.93;77.78;103153.03;5127841;27;45478;-77
2022/01/18 02:56:23;;;;;;;;;35.00;25.50;;;;;4.96;77.75;103158.47;5123867;27;45261;-78
2022/01/18 02:58:49;;;;;;;;;34.00;25.00;;;;;4.65;77.31;103092.78;5121138;27;46373;-78
2022/01/18 03:03:58;;;;;;;;;35.67;28.33;;;;;5.00;77.68;103143.91;5120650;27;45289;-78
2022/01/18 03:06:23;;;;;;;;;36.33;26.00;;;;;4.92;77.63;103113.75;5130229;27;45493;-78
2022/01/18 03:08:49;;;;;;;;;33.33;25.33;;;;;5.05;77.57;103140.81;5134823;27;45500;-78
2022/01/18 03:11:14;;;;;;;;;30.25;25.75;;;;;4.88;77.64;103107.41;5122047;27;45379;-78
2022/01/18 03:13:39;;;;;;;;;26.00;22.33;;;;;5.01;77.24;103125.72;5126043;27;45716;-79
2022/01/18 03:16:05;;;;;;;;;35.33;28.33;;;;;4.83;77.66;103088.81;5141790;27;45482;-79
2022/01/18 03:18:30;;;;;;;;;37.00;32.33;;;;;4.55;77.52;103033.81;5141135;27;46535;-78
2022/01/18 03:20:56;;;;;;;;;29.33;25.67;;;;;4.88;77.73;103104.81;5141219;27;45375;-77
2022/01/18 03:23:23;;;;;;;;;25.00;21.00;;;;;4.92;77.75;103103.31;5141004;27;45343;-78
2022/01/18 03:26:00;;;;;;;;;19.00;17.67;;;;;4.74;77.67;103075.13;5141462;27;45320;-78
2022/01/18 03:28:27;;;;;;;;;34.00;24.33;;;;;4.60;77.60;103052.41;5140696;27;45543;-77
2022/01/18 03:30:57;;;;;;;;;28.33;26.67;;;;;4.99;77.69;103119.50;5123734;27;45429;-78
2022/01/18 03:33:24;;;;;;;;;34.00;28.33;;;;;4.77;77.90;103080.59;5120416;27;45506;-77
2022/01/18 03:35:52;;;;;;;;;36.00;28.00;;;;;4.97;78.15;103123.72;5124359;27;45164;-78
2022/01/18 03:38:19;;;;;;;;;35.00;27.67;;;;;4.75;77.91;103076.97;5123850;27;46513;-78
2022/01/18 03:40:44;;;;;;;;;26.33;25.67;;;;;4.83;77.99;103083.59;5123145;27;45404;-76
2022/01/18 03:43:12;;;;;;;;;31.67;29.00;;;;;5.04;77.85;103118.13;5129080;27;45450;-78
2022/01/18 03:45:44;;;;;;;;;32.33;25.67;;;;;4.98;77.73;103107.25;5140667;27;45324;-78
2022/01/18 03:48:23;;;;;;;;;30.00;29.33;;;;;5.06;77.77;103115.59;5140806;27;46443;-79
2022/01/18 03:50:49;;;;;;;;;32.00;25.67;;;;;5.02;77.05;103111.84;5128158;27;45340;-79
2022/01/18 03:53:15;;;;;;;;;30.33;23.67;;;;;4.97;77.46;103112.38;5120134;27;45297;-78
2022/01/18 03:55:40;;;;;;;;;37.00;27.67;;;;;4.98;77.36;103111.56;5131539;27;45369;-79
2022/01/18 03:58:06;;;;;;;;;26.00;23.00;;;;;4.75;77.96;103081.28;5119565;27;45768;-78
2022/01/18 04:00:31;;;;;;;;;30.67;25.00;;;;;4.80;77.62;103082.50;5138621;27;45225;-78
2022/01/18 04:02:58;;;;;;;;;29.67;24.67;;;;;4.95;77.97;103100.91;5140401;27;45260;-78
2022/01/18 04:05:25;;;;;;;;;34.33;29.67;;;;;5.02;77.91;103116.19;5140400;27;45268;-79
2022/01/18 04:07:50;;;;;;;;;33.33;29.33;;;;;4.66;77.60;103051.94;5119872;27;45624;-78
2022/01/18 04:10:17;;;;;;;;;24.67;22.00;;;;;4.98;77.46;103109.84;5119371;27;45291;-79
2022/01/18 04:12:42;;;;;;;;;30.33;28.00;;;;;5.01;77.69;103117.88;5119810;27;45316;-77
2022/01/18 04:15:14;;;;;;;;;35.33;29.33;;;;;4.93;77.90;103107.72;5120057;27;45360;-78
2022/01/18 04:26:00;;;;;;;;;37.67;27.33;;;;;4.86;78.52;103096.88;5120063;27;45267;-79
2022/01/18 04:28:40;;;;;;;;;26.00;26.00;;;;;4.70;78.62;103073.13;5101104;27;46166;-78
2022/01/18 04:31:08;;;;;;;;;24.67;17.00;;;;;4.86;78.51;103099.50;5118311;27;45397;-78
2022/01/18 04:33:35;;;;;;;;;34.00;29.33;;;;;4.93;78.58;103100.78;5119901;27;45286;-78
2022/01/18 04:36:01;;;;;;;;;29.67;25.00;;;;;4.83;78.51;103095.75;5119787;27;45250;-79
2022/01/18 04:38:26;;;;;;;;;29.00;26.67;;;;;4.77;78.27;103084.91;5119247;27;45495;-77
2022/01/18 04:40:52;;;;;;;;;40.33;29.67;;;;;4.80;78.66;103099.06;5118888;27;45233;-78
2022/01/18 04:48:32;;;;;;;;;35.67;33.33;;;;;4.91;78.66;103120.69;5119312;27;45373;-77
2022/01/18 04:51:07;;;;;;;;;33.33;31.33;;;;;4.77;78.45;103077.97;5119427;27;45393;-77
2022/01/18 04:53:34;;;;;;;;;35.00;33.00;;;;;4.91;78.72;103097.19;5123933;27;45266;-78
2022/01/18 04:56:06;;;;;;;;;35.33;32.33;;;;;4.96;77.95;103110.56;5140152;27;45264;-78
2022/01/18 04:58:31;;;;;;;;;33.33;28.00;;;;;4.88;78.55;103086.53;5139099;27;45339;-80
2022/01/18 05:00:59;;;;;;;;;34.33;27.33;;;;;4.80;78.48;103064.22;5141279;27;45263;-76
2022/01/18 05:03:27;;;;;;;;;39.00;31.33;;;;;4.97;78.05;103099.31;5103113;27;45467;-78
2022/01/18 05:05:56;;;;;;;;;37.67;28.00;;;;;5.01;78.39;103120.50;5137042;27;45171;-76
2022/01/18 05:08:22;;;;;;;;;38.33;28.00;;;;;4.99;78.75;103102.91;5120796;27;45495;-76
2022/01/18 05:10:53;;;;;;;;;48.67;37.00;;;;;5.01;78.46;103110.06;5118794;27;45713;-77
2022/01/18 05:16:02;;;;;;;;;36.00;28.00;;;;;4.96;78.33;103092.28;5119003;27;45335;-77
2022/01/18 05:23:20;;;;;;;;;30.00;25.33;;;;;4.66;78.44;103060.66;5118562;27;45416;-77
2022/01/18 05:25:46;;;;;;;;;35.25;25.75;;;;;4.73;78.47;103073.31;5118822;27;45316;-76
2022/01/18 05:28:13;;;;;;;;;33.75;31.00;;;;;4.88;78.22;103099.59;5118578;27;45439;-75
2022/01/18 05:30:39;;;;;;;;;27.50;21.50;;;;;4.93;78.21;103100.78;5118530;27;45415;-78
2022/01/18 05:33:05;;;;;;;;;31.50;27.75;;;;;4.81;77.71;103093.03;5118474;27;45325;-76
2022/01/18 05:35:30;;;;;;;;;35.67;27.33;;;;;4.81;78.72;103105.19;5130933;27;45330;-76
2022/01/18 05:37:56;;;;;;;;;32.50;26.50;;;;;4.68;78.68;103079.94;5118260;27;46359;-77
2022/01/18 05:40:22;;;;;;;;;29.33;25.33;;;;;4.68;78.41;103084.28;5127255;27;45195;-76
2022/01/18 05:42:47;;;;;;;;;29.50;26.00;;;;;4.68;78.48;103095.63;5120702;27;45385;-76
2022/01/18 05:45:13;;;;;;;;;33.33;24.67;;;;;4.68;78.48;103090.41;5139292;27;45258;-75
2022/01/18 05:47:39;;;;;;;;;20.33;15.00;;;;;4.74;78.52;103097.72;5138963;27;45572;-77
2022/01/18 05:50:07;;;;;;;;;20.67;18.33;;;;;4.68;78.47;103084.28;5139234;27;45548;-77
2022/01/18 05:52:33;;;;;;;;;24.33;20.33;;;;;4.63;78.55;103072.59;5138443;27;45308;-77
2022/01/18 05:54:58;;;;;;;;;32.00;21.00;;;;;4.69;78.22;103091.28;5132357;27;45478;-77
2022/01/18 05:57:24;;;;;;;;;24.67;22.00;;;;;4.52;78.32;103051.88;5116521;27;46214;-77
2022/01/18 05:59:50;;;;;;;;;32.33;27.67;;;;;4.70;78.40;103093.09;5126702;27;45349;-77
2022/01/18 06:02:32;;;;;;;;;28.00;25.00;;;;;4.68;78.37;103098.22;5126569;27;45282;-77
2022/01/18 06:07:42;;;;;;;;;20.00;16.00;;;;;4.41;78.08;103050.22;5121586;27;45408;-76
2022/01/18 06:10:08;;;;;;;;;23.67;21.33;;;;;4.68;78.21;103102.53;5123072;27;45508;-77
2022/01/18 06:12:34;;;;;;;;;24.50;20.25;;;;;4.64;78.10;103101.41;5137700;27;45478;-76
2022/01/18 06:15:00;;;;;;;;;25.00;21.00;;;;;4.52;77.83;103091.03;5132955;27;45292;-75
2022/01/18 06:17:25;;;;;;;;;23.33;20.00;;;;;4.52;77.98;103090.13;5121713;27;46178;-77
2022/01/18 06:19:51;;;;;;;;;27.33;21.33;;;;;4.55;78.29;103100.75;5137650;27;45372;-76
2022/01/18 06:22:17;;;;;;;;;28.67;21.67;;;;;4.58;78.08;103104.50;5124008;27;45440;-78
2022/01/18 06:24:42;;;;;;;;;25.00;22.00;;;;;4.29;78.10;103065.03;5125654;27;45233;-75
2022/01/18 06:27:09;;;;;;;;;22.33;21.67;;;;;4.36;77.90;103074.19;5142090;27;45765;-76
2022/01/18 06:29:35;;;;;;;;;31.67;30.00;;;;;4.18;77.94;103053.84;5129592;27;45486;-75
2022/01/18 06:32:00;;;;;;;;;25.00;20.33;;;;;4.36;77.87;103082.00;5127716;27;45405;-77
2022/01/18 06:34:26;;;;;;;;;24.67;21.00;;;;;4.47;77.87;103113.31;5131194;27;45295;-78
2022/01/18 06:36:51;;;;;;;;;24.00;23.67;;;;;4.38;77.71;103090.88;5131989;27;45358;-78
2022/01/18 06:39:17;;;;;;;;;28.00;23.33;;;;;4.21;77.76;103053.16;5117465;27;45466;-78
2022/01/18 06:41:45;;;;;;;;;26.00;21.67;;;;;4.35;77.65;103088.03;5132321;27;45572;-76
2022/01/18 06:44:11;;;;;;;;;27.67;20.33;;;;;4.13;77.87;103067.38;5137306;27;45534;-78
2022/01/18 06:46:36;;;;;;;;;30.00;22.33;;;;;4.43;77.69;103126.91;5141570;27;45449;-78
2022/01/18 06:49:02;;;;;;;;;27.67;20.33;;;;;4.00;77.95;103056.06;5132793;27;45446;-79
2022/01/18 06:51:27;;;;;;;;;26.33;22.33;;;;;4.07;78.12;103070.44;5121152;27;45231;-79
2022/01/18 06:53:53;;;;;;;;;22.00;21.33;;;;;4.05;78.24;103074.63;5121304;27;45133;-78
2022/01/18 06:56:20;;;;;;;;;29.00;28.33;;;;;4.11;78.36;103088.13;5121014;27;46057;-77
2022/01/18 06:58:46;;;;;;;;;27.00;25.00;;;;;3.90;78.22;103052.69;5120651;27;45478;-78
2022/01/18 07:01:13;;;;;;;;;27.33;21.33;;;;;4.20;78.48;103127.00;5135143;27;45346;-78
2022/01/18 07:03:39;;;;;;;;;17.67;15.33;;;;;3.93;78.86;103081.59;5141438;27;45410;-81
2022/01/18 07:06:06;;;;;;;;;25.33;19.33;;;;;3.74;78.70;103060.22;5141765;27;45548;-79
2022/01/18 07:08:32;;;;;;;;;29.33;23.67;;;;;3.70;78.96;103066.88;5128418;27;45528;-79
2022/01/18 07:10:58;;;;;;;;;27.00;22.67;;;;;3.90;79.46;103108.34;5120428;27;45243;-83
2022/01/18 07:13:24;;;;;;;;;24.67;21.00;;;;;3.85;79.24;103104.50;5125887;27;45208;-80
2022/01/18 07:15:50;;;;;;;;;31.67;27.33;;;;;3.90;80.06;103110.03;5120664;27;46050;-80
2022/01/18 07:18:15;;;;;;;;;27.33;24.33;;;;;3.81;80.05;103093.72;5105641;27;45400;-81
2022/01/18 07:20:41;;;;;;;;;22.67;22.00;;;;;3.67;80.11;103083.22;5119832;27;45455;-79
2022/01/18 07:23:11;;;;;;;;;31.00;27.00;;;;;3.83;80.78;103113.03;5124164;27;45376;-79
2022/01/18 07:25:42;;;;;;;;;33.67;27.00;;;;;3.39;80.46;103022.06;5132833;27;45259;-79
2022/01/18 07:28:09;;;;;;;;;30.00;26.67;;;;;3.72;80.80;103080.94;5120304;27;45356;-81
2022/01/18 07:30:35;;;;;;;;;33.67;27.67;;;;;3.63;81.15;103057.75;5127911;27;45409;-79
2022/01/18 07:33:00;;;;;;;;;28.33;23.33;;;;;3.63;80.59;103047.31;5141194;27;45299;-76
2022/01/18 07:35:27;;;;;;;;;29.00;27.33;;;;;3.94;80.50;103089.53;5140700;27;45445;-83
2022/01/18 07:37:52;;;;;;;;;27.00;22.67;;;;;3.79;80.34;103057.13;5122447;27;45603;-78
2022/01/18 07:40:18;;;;;;;;;25.67;25.33;;;;;4.05;80.25;103098.13;5141196;27;45447;-80
2022/01/18 07:42:44;;;;;;;;;24.33;20.00;;;;;3.91;80.33;103067.56;5126162;27;45400;-79
2022/01/18 07:45:10;;;;;;;;;22.00;21.33;;;;;3.90;80.21;103065.72;5120179;27;46087;-80
2022/01/18 07:47:35;;;;;;;;;29.00;28.67;;;;;4.13;80.62;103094.34;5120294;27;45487;-80
2022/01/18 07:50:01;;;;;;;;;32.33;26.00;;;;;4.13;80.53;103093.44;5120441;27;45384;-79
2022/01/18 07:52:26;;;;;;;;;24.00;20.33;;;;;4.08;80.25;103074.84;5123206;27;45397;-80
2022/01/18 07:54:52;;;;;;;;;31.00;28.67;;;;;3.97;80.34;103061.06;5102364;27;46847;-80
2022/01/18 07:57:19;;;;;;;;;29.33;24.33;;;;;4.29;80.10;103112.00;5128235;27;45481;-76
2022/01/18 07:59:44;;;;;;;;;31.67;29.00;;;;;3.84;79.63;103011.44;5140645;27;45262;-77
2022/01/18 08:02:10;;;;;;;;;35.00;26.67;;;;;4.44;80.06;103105.25;5126110;27;45481;-78
2022/01/18 08:04:35;;;;;;;;;28.67;27.00;;;;;4.47;79.76;103083.69;5124123;27;45857;-81
2022/01/18 08:07:01;;;;;;;;;29.00;25.33;;;;;4.59;79.51;103092.38;5129509;27;45477;-80
2022/01/18 08:09:26;;;;;;;;;24.00;24.00;;;;;4.37;79.12;103031.63;5131055;27;45399;-80
2022/01/18 08:11:52;;;;;;;;;30.33;24.67;;;;;4.69;78.81;103073.94;5127478;27;45426;-81
2022/01/18 08:14:18;;;;;;;;;29.67;23.33;;;;;4.62;79.11;103042.06;5128604;27;46311;-84
2022/01/18 08:19:15;;;;;;;;;34.67;29.00;;;;;4.94;78.21;103073.00;5127613;27;45494;-84
2022/01/18 08:21:41;;;;;;;;;38.67;30.33;;;;;4.83;78.42;103031.34;5128743;27;45428;-78
2022/01/18 08:24:06;;;;;;;;;35.33;26.67;;;;;5.18;77.87;103078.94;5128955;27;45564;-82
2022/01/18 08:26:32;;;;;;;;;30.00;28.67;;;;;5.10;77.53;103053.19;5121087;27;45469;-80
2022/01/18 08:28:57;;;;;;;;;29.00;22.33;;;;;5.23;77.52;103060.16;5131284;27;45317;-81
2022/01/18 08:31:23;;;;;;;;;37.33;35.67;;;;;5.26;76.71;103049.91;5118988;27;45227;-80
2022/01/18 08:33:48;;;;;;;;;33.33;27.33;;;;;5.62;76.79;103101.09;5099868;27;46928;-83
2022/01/18 08:36:14;;;;;;;;;25.33;23.00;;;;;5.44;76.31;103044.97;5119143;27;45487;-82
2022/01/18 08:38:40;;;;;;;;;34.00;30.67;;;;;5.74;75.76;103074.81;5119970;27;45308;-82
2022/01/18 08:41:06;;;;;;;;;32.67;29.67;;;;;5.59;76.01;103034.63;5119389;27;45272;-83
2022/01/18 08:43:32;;;;;;;;;45.33;37.33;;;;;5.80;75.56;103050.78;5119046;27;46494;-82
2022/01/18 08:45:59;;;;;;;;;45.33;39.33;;;;;6.05;75.56;103089.88;5119114;27;45471;-83
2022/01/18 08:48:25;;;;;;;;;31.67;31.67;;;;;5.81;75.05;103029.03;5119258;27;45262;-82
2022/01/18 08:50:50;;;;;;;;;34.33;26.33;;;;;6.20;74.17;103083.00;5100608;27;45235;-82
2022/01/18 08:53:16;;;;;;;;;39.33;31.33;;;;;6.21;74.50;103076.97;5119077;27;45619;-82
2022/01/18 08:55:41;;;;;;;;;41.75;33.75;;;;;6.11;74.29;103035.31;5118714;27;45391;-82
2022/01/18 08:58:08;;;;;;;;;42.00;32.00;;;;;6.39;74.34;103058.88;5118868;27;45318;-82
2022/01/18 09:00:33;;;;;;;;;34.75;31.75;;;;;6.58;73.24;103074.91;5119219;27;45218;-82
2022/01/18 09:02:59;;;;;;;;;34.25;31.00;;;;;6.77;73.04;103088.28;5117992;27;45387;-82
2022/01/18 09:05:25;;;;;;;;;44.75;36.50;;;;;6.80;72.74;103051.81;5118484;27;45236;-82
2022/01/18 09:07:52;;;;;;;;;41.00;35.50;;;;;6.88;72.83;103054.88;5118850;27;45445;-82
2022/01/18 09:10:18;;;;;;;;;39.33;38.33;;;;;7.04;72.05;103081.19;5118721;27;45704;-82
2022/01/18 09:12:44;;;;;;;;;41.67;38.67;;;;;6.86;71.64;103051.28;5118949;27;45336;-84
2022/01/18 09:15:11;;;;;;;;;43.67;41.00;;;;;7.04;71.86;103075.03;5100877;27;45439;-83
2022/01/18 09:17:39;;;;;;;;;41.00;36.50;;;;;6.94;72.00;103062.22;5118969;27;45376;-82
2022/01/18 09:20:07;;;;;;;;;49.00;37.25;;;;;7.01;72.98;103067.00;5119030;27;45461;-83
2022/01/18 09:22:37;;;;;;;;;38.25;30.25;;;;;6.90;72.58;103060.25;5118044;27;45366;-83
2022/01/18 09:25:15;;;;;;;;;42.25;35.25;;;;;7.01;73.05;103077.50;5118822;27;45351;-83
2022/01/18 09:27:41;;;;;;;;;36.75;36.25;;;;;7.04;72.48;103080.28;5117358;27;45420;-84
2022/01/18 09:30:07;;;;;;;;;46.00;38.75;;;;;7.30;73.58;103053.88;5118944;27;45313;-84
2022/01/18 09:32:33;;;;;;;;;29.50;26.25;;;;;8.97;68.67;103070.91;5118255;27;45312;-83
2022/01/18 09:34:58;;;;;;;;;44.50;37.00;;;;;10.69;63.23;103026.47;5117986;27;45256;-83
2022/01/18 09:37:24;;;;;;;;;30.25;29.50;;;;;12.93;56.84;103057.28;5118301;27;45349;-83
2022/01/18 09:39:49;;;;;;;;;45.75;37.75;;;;;14.58;52.76;103054.59;5118447;27;45259;-81
2022/01/18 09:42:17;;;;;;;;;47.50;38.50;;;;;16.74;47.19;102981.69;5118297;27;46013;-83
2022/01/18 09:44:45;;;;;;;;;40.75;35.00;;;;;19.24;42.57;103061.53;5121510;27;45238;-82
2022/01/18 09:47:10;;;;;;;;;31.25;28.25;;;;;20.77;39.57;103050.81;5122899;27;45194;-82
2022/01/18 09:49:37;;;;;;;;;40.00;36.00;;;;;21.90;36.68;103061.53;5123073;27;45385;-82
2022/01/18 09:52:03;;;;;;;;;36.50;30.25;;;;;22.47;34.98;103031.78;5123243;27;46158;-82
2022/01/18 09:54:28;;;;;;;;;32.50;29.00;;;;;23.03;34.11;103034.13;5122973;27;45402;-83
2022/01/18 09:56:54;;;;;;;;;32.75;31.25;;;;;21.77;34.49;102973.91;5123160;27;45330;-82
2022/01/18 09:59:19;;;;;;;;;34.25;29.00;;;;;20.06;36.89;102967.59;5122102;27;45462;-81
2022/01/18 10:01:45;;;;;;;;;26.00;26.00;;;;;21.21;37.03;102990.09;5122474;27;46143;-83
2022/01/18 10:04:22;;;;;;;;;27.50;26.75;;;;;22.94;33.92;103011.81;5122759;27;45319;-83
2022/01/18 10:06:51;;;;;;;;;24.67;22.33;;;;;24.10;31.89;103006.16;5122959;27;45314;-82
2022/01/18 10:09:19;;;;;;;;;37.33;31.00;;;;;25.23;30.23;103025.16;5104453;27;45468;-83
2022/01/18 10:12:05;;;;;;;;;25.33;24.67;;;;;26.18;28.77;103053.06;5122999;27;45892;-83
2022/01/18 10:14:31;;;;;;;;;32.00;28.00;;;;;26.76;28.16;103044.56;5123023;27;45320;-82
2022/01/18 10:16:57;;;;;;;;;32.67;26.67;;;;;27.11;26.70;103029.31;5122403;27;45237;-83
2022/01/18 10:19:41;;;;;;;;;32.00;25.67;;;;;27.59;27.18;103040.66;5123602;27;45303;-82
2022/01/18 10:22:31;;;;;;;;;27.33;26.67;;;;;27.88;26.15;103010.06;5122759;27;45446;-82
2022/01/18 10:25:31;;;;;;;;;23.33;23.33;;;;;27.18;27.30;103015.59;5122834;27;45388;-83
2022/01/18 10:27:57;;;;;;;;;26.33;24.00;;;;;23.87;30.71;103041.41;5120927;27;45269;-83
2022/01/18 10:30:43;;;;;;;;;30.67;29.67;;;;;21.61;34.52;103012.44;5121307;27;45198;-82
2022/01/18 10:33:18;;;;;;;;;29.67;27.33;;;;;20.18;36.70;102997.94;5120840;27;46434;-82
2022/01/18 10:36:10;;;;;;;;;28.67;26.33;;;;;19.32;38.97;103033.09;5121527;27;45210;-82
2022/01/18 10:38:43;;;;;;;;;31.33;28.33;;;;;19.25;39.37;103020.56;5121569;27;45267;-82
2022/01/18 10:41:34;;;;;;;;;31.00;27.00;;;;;21.20;36.12;103036.56;5121296;27;45310;-83
2022/01/18 10:44:09;;;;;;;;;26.67;26.33;;;;;23.44;33.06;103040.03;5121029;27;46936;-82
2022/01/18 10:46:43;;;;;;;;;35.67;31.33;;;;;24.66;30.55;103041.31;5102423;27;45675;-83
2022/01/18 10:49:23;;;;;;;;;29.33;29.00;;;;;25.54;29.65;103009.28;5121091;27;45322;-82
2022/01/18 10:51:59;;;;;;;;;37.67;29.67;;;;;26.57;28.53;103051.31;5121079;27;45330;-83
2022/01/18 10:54:39;;;;;;;;;27.67;24.67;;;;;27.03;27.13;103028.63;5119741;27;46890;-82
2022/01/18 10:57:06;;;;;;;;;38.33;30.33;;;;;27.70;26.41;103056.66;5120761;27;45357;-83
2022/01/18 10:59:33;;;;;;;;;31.67;29.00;;;;;27.99;26.35;103061.25;5121064;27;45315;-82
2022/01/18 11:02:06;;;;;;;;;29.67;29.00;;;;;28.19;25.47;103064.25;5120954;27;45346;-83
2022/01/18 11:04:31;;;;;;;;;30.33;28.67;;;;;28.01;25.86;103052.16;5120584;27;45481;-82
2022/01/18 11:07:04;;;;;;;;;26.67;25.33;;;;;27.97;25.84;103017.94;5120720;27;45288;-82
2022/01/18 11:09:30;;;;;;;;;26.67;26.67;;;;;27.96;26.48;103031.53;5120428;27;45225;-83
2022/01/18 11:11:56;;;;;;;;;31.33;28.00;;;;;27.31;25.68;102977.38;5120452;27;45446;-83
2022/01/18 11:14:24;;;;;;;;;31.00;25.33;;;;;25.81;27.59;102922.38;5119687;27;46325;-83
2022/01/18 11:16:52;;;;;;;;;26.33;24.33;;;;;24.36;29.60;102916.00;5120482;27;45366;-84
2022/01/18 11:21:52;;;;;;;;;28.67;26.00;;;;;22.09;33.05;102925.50;5120698;27;45267;-84
2022/01/18 11:24:19;;;;;;;;;23.33;22.33;;;;;21.32;34.47;102932.94;5102075;27;46080;-83
2022/01/18 11:26:45;;;;;;;;;20.00;19.33;;;;;20.91;34.92;102926.69;5120556;27;45216;-86
2022/01/18 11:29:15;;;;;;;;;24.33;22.00;;;;;20.43;35.70;102926.66;5120940;27;45378;-83
2022/01/18 11:31:40;;;;;;;;;22.67;22.67;;;;;20.04;36.44;102922.09;5120626;27;45396;-86
2022/01/18 11:34:11;;;;;;;;;23.33;21.00;;;;;19.82;37.60;102915.78;5120417;27;45431;-84
2022/01/18 11:36:42;;;;;;;;;24.33;21.33;;;;;19.47;38.03;102904.00;5120189;27;45455;-84
2022/01/18 11:39:10;;;;;;;;;20.67;19.33;;;;;18.98;37.89;102853.81;5120405;27;45230;-82
2022/01/18 11:41:37;;;;;;;;;19.00;16.33;;;;;18.94;38.53;102900.09;5120447;27;45441;-83
2022/01/18 11:44:13;;;;;;;;;18.33;18.33;;;;;18.48;39.21;102851.66;5119833;27;45455;-83
2022/01/18 11:46:50;;;;;;;;;23.67;22.67;;;;;18.46;39.54;102874.78;5120232;27;45389;-84
2022/01/18 11:49:24;;;;;;;;;21.00;19.00;;;;;18.10;40.00;102847.75;5120086;27;45305;-85
2022/01/18 11:51:56;;;;;;;;;22.67;18.00;;;;;18.14;40.22;102878.88;5120816;27;45368;-85
2022/01/18 11:54:38;;;;;;;;;17.33;17.00;;;;;17.87;40.41;102872.41;5122934;27;46241;-86
2022/01/18 11:57:24;;;;;;;;;20.33;18.00;;;;;17.70;41.16;102873.97;5121445;27;45463;-84
2022/01/18 12:00:00;;;;;;;;;17.00;17.00;;;;;17.55;41.15;102873.75;5122233;27;45209;-83
2022/01/18 12:02:33;;;;;;;;;18.00;18.00;;;;;17.33;41.97;102867.25;5121618;27;45214;-81
2022/01/18 12:05:06;;;;;;;;;18.00;15.00;;;;;17.16;41.75;102852.78;5122810;27;46536;-82
2022/01/18 12:07:38;;;;;;;;;21.33;17.67;;;;;17.09;42.15;102852.69;5120513;27;45458;-84
2022/01/18 12:10:08;;;;;;;;;14.00;14.00;;;;;16.72;42.08;102799.78;5120238;27;45535;-83
2022/01/18 12:12:39;;;;;;;;;16.00;14.33;;;;;16.83;42.74;102855.84;5118933;27;45348;-82
2022/01/18 12:15:26;;;;;;;;;16.67;14.67;;;;;16.52;42.84;102824.28;5119816;27;45421;-82
2022/01/18 12:17:58;;;;;;;;;20.00;17.67;;;;;16.31;42.45;102802.66;5119383;27;45316;-82
2022/01/18 12:20:37;;;;;;;;;15.67;11.33;;;;;16.32;43.08;102841.69;5118814;27;45536;-82
2022/01/18 12:23:08;;;;;;;;;12.67;12.67;;;;;15.90;43.35;102800.16;5120373;27;45411;-81
2022/01/18 12:25:36;;;;;;;;;17.33;16.67;;;;;15.72;43.76;102785.63;5119907;27;45633;-82
2022/01/18 12:28:49;;;;;;;;;15.00;14.67;;;;;15.96;44.36;102826.88;5120442;27;45407;-83
2022/01/18 12:34:34;;;;;;;;;23.50;21.00;;;;;15.96;44.00;102821.53;5120071;27;45310;-82
2022/01/18 12:37:11;;;;;;;;;23.25;17.50;;;;;15.79;44.09;102823.00;5120532;27;46566;-82